Time;durP1;ratioP1;P1;durP2;ratioP2;P2;SDS_P1;SDS_P2;PMS_P1;PMS_P2;Temp;Humidity;BMP_temperature;BMP_pressure;BME280_temperature;BME280_humidity;BME280_pressure;Samples;Min_cycle;Max_cycle;Signal;HPM_P1;HPM_P2
2023/12/27 00:00:37;;;;;;;18.70;7.45;;;;;;;9.20;100.00;100744.66;5031840;28;20096;-73
2023/12/27 00:03:03;;;;;;;17.13;7.70;;;;;;;9.20;100.00;100738.28;5016710;28;20482;-73
2023/12/27 00:05:29;;;;;;;15.73;7.03;;;;;;;9.23;100.00;100735.78;5037502;28;20040;-73
2023/12/27 00:07:54;;;;;;;17.23;7.32;;;;;;;9.23;100.00;100740.50;5035625;28;20028;-73
2023/12/27 00:10:20;;;;;;;17.15;7.13;;;;;;;9.23;100.00;100726.63;5034200;28;20056;-73
2023/12/27 00:12:45;;;;;;;16.02;7.07;;;;;;;9.23;100.00;100715.56;5018878;28;20026;-72
2023/12/27 00:15:11;;;;;;;12.38;6.80;;;;;;;9.24;100.00;100725.50;5039519;28;20034;-73
2023/12/27 00:17:36;;;;;;;19.90;7.88;;;;;;;9.23;100.00;100729.41;5037098;28;20177;-73
2023/12/27 00:20:02;;;;;;;13.60;6.72;;;;;;;9.23;100.00;100724.69;5038074;28;20053;-73
2023/12/27 00:22:28;;;;;;;17.45;7.65;;;;;;;9.26;100.00;100723.28;5037602;28;20061;-73
2023/12/27 00:24:53;;;;;;;14.65;6.72;;;;;;;9.27;100.00;100708.31;5044320;28;20475;-73
2023/12/27 00:27:19;;;;;;;16.38;7.07;;;;;;;9.24;100.00;100709.72;5035846;28;20052;-73
2023/12/27 00:29:44;;;;;;;14.30;6.47;;;;;;;9.24;100.00;100692.25;5039118;28;20425;-72
2023/12/27 00:32:11;;;;;;;19.20;7.13;;;;;;;9.24;100.00;100686.72;5018039;28;20026;-73
2023/12/27 00:34:37;;;;;;;15.65;7.13;;;;;;;9.25;100.00;100708.63;5037858;28;20482;-72
2023/12/27 00:37:03;;;;;;;21.40;8.32;;;;;;;9.25;100.00;100702.22;5037850;28;20049;-73
2023/12/27 00:39:28;;;;;;;24.58;7.85;;;;;;;9.25;100.00;100711.38;5037339;28;20025;-73
2023/12/27 00:41:54;;;;;;;19.40;7.82;;;;;;;9.24;100.00;100703.34;5037273;28;20034;-73
2023/12/27 00:44:19;;;;;;;18.95;8.85;;;;;;;9.25;100.00;100699.44;5037371;28;20474;-73
2023/12/27 00:46:45;;;;;;;19.75;7.90;;;;;;;9.23;100.00;100699.75;5004908;28;20099;-73
2023/12/27 00:49:10;;;;;;;23.48;8.23;;;;;;;9.28;100.00;100698.91;5020945;28;20057;-73
2023/12/27 00:51:36;;;;;;;19.90;7.90;;;;;;;9.26;100.00;100682.56;5037447;28;20478;-73
2023/12/27 00:54:01;;;;;;;14.90;8.27;;;;;;;9.28;100.00;100685.88;5037169;28;20449;-73
2023/12/27 00:56:27;;;;;;;18.70;7.60;;;;;;;9.28;100.00;100693.38;5038766;28;20033;-73
2023/12/27 00:58:52;;;;;;;22.38;8.30;;;;;;;9.29;100.00;100689.47;5037147;28;20033;-72
2023/12/27 01:01:18;;;;;;;19.17;8.48;;;;;;;9.27;100.00;100686.16;5037091;28;20029;-72
2023/12/27 01:03:43;;;;;;;18.08;7.55;;;;;;;9.28;100.00;100690.59;5037274;28;20060;-73
2023/12/27 01:06:09;;;;;;;22.98;8.93;;;;;;;9.28;100.00;100690.59;5038922;28;20041;-73
2023/12/27 01:08:35;;;;;;;16.38;8.05;;;;;;;9.27;100.00;100681.44;5039181;28;20367;-73
2023/12/27 01:11:00;;;;;;;17.63;7.80;;;;;;;9.27;100.00;100675.88;5038272;28;20040;-73
2023/12/27 01:13:26;;;;;;;20.00;8.52;;;;;;;9.27;100.00;100675.06;5033495;28;20087;-73
2023/12/27 01:15:51;;;;;;;18.80;7.60;;;;;;;9.28;100.00;100666.47;5040491;28;20026;-73
2023/12/27 01:18:17;;;;;;;20.13;8.15;;;;;;;9.29;100.00;100668.13;5054485;28;20697;-73
2023/12/27 01:20:42;;;;;;;17.70;8.05;;;;;;;9.31;100.00;100665.91;5027873;28;20054;-73
2023/12/27 01:23:08;;;;;;;18.65;8.40;;;;;;;9.29;100.00;100659.81;5030198;28;20418;-72
2023/12/27 01:25:33;;;;;;;16.48;8.35;;;;;;;9.30;100.00;100655.09;5028266;28;20029;-73
2023/12/27 01:27:58;;;;;;;19.70;8.55;;;;;;;9.28;100.00;100660.94;5027622;28;20092;-73
2023/12/27 01:30:24;;;;;;;23.67;8.63;;;;;;;9.28;100.00;100649.84;5027780;28;20483;-73
2023/12/27 01:32:49;;;;;;;18.63;8.15;;;;;;;9.29;100.00;100645.13;5028678;28;20022;-72
2023/12/27 01:35:15;;;;;;;14.45;7.03;;;;;;;9.29;100.00;100645.13;5011635;28;20501;-73
2023/12/27 01:37:42;;;;;;;18.50;7.60;;;;;;;9.29;100.00;100640.41;5010359;28;20038;-73
2023/12/27 01:40:08;;;;;;;13.27;7.10;;;;;;;9.32;100.00;100641.78;4998855;28;20044;-73
2023/12/27 01:42:33;;;;;;;18.10;7.63;;;;;;;9.34;100.00;100642.34;5026756;28;20367;-73
2023/12/27 01:44:59;;;;;;;17.40;7.93;;;;;;;9.34;100.00;100636.81;5010790;28;20116;-73
2023/12/27 01:47:25;;;;;;;18.15;8.43;;;;;;;9.35;100.00;100642.06;5026743;28;20037;-73
2023/12/27 01:49:51;;;;;;;20.55;7.55;;;;;;;9.35;100.00;100632.91;5027685;28;20043;-72
2023/12/27 01:52:16;;;;;;;20.60;8.48;;;;;;;9.35;100.00;100644.00;5009525;28;20030;-73
2023/12/27 01:54:42;;;;;;;18.73;8.88;;;;;;;9.36;100.00;100646.50;5028679;28;20060;-73
2023/12/27 01:57:07;;;;;;;15.50;8.02;;;;;;;9.37;100.00;100642.59;5032281;28;20056;-73
2023/12/27 01:59:32;;;;;;;17.85;8.43;;;;;;;9.40;100.00;100641.22;5013428;28;20021;-73
2023/12/27 02:01:58;;;;;;;18.95;8.32;;;;;;;9.39;100.00;100637.63;5028290;28;20099;-73
2023/12/27 02:04:24;;;;;;;21.98;8.95;;;;;;;9.43;100.00;100637.88;5030393;28;20048;-73
2023/12/27 02:06:49;;;;;;;21.13;9.20;;;;;;;9.43;100.00;100635.09;5035292;28;20036;-73
2023/12/27 02:09:15;;;;;;;19.95;9.48;;;;;;;9.44;100.00;100645.06;5029649;28;20079;-73
2023/12/27 02:11:42;;;;;;;20.60;9.20;;;;;;;9.43;100.00;100640.66;5036715;28;20038;-73
2023/12/27 02:14:07;;;;;;;17.70;8.95;;;;;;;9.46;100.00;100630.94;5035213;28;20068;-73
2023/12/27 02:16:33;;;;;;;17.27;9.45;;;;;;;9.46;100.00;100631.75;5018053;28;20044;-73
2023/12/27 02:19:00;;;;;;;21.88;9.07;;;;;;;9.50;100.00;100632.88;5035842;28;20060;-73
2023/12/27 02:21:25;;;;;;;20.15;10.07;;;;;;;9.48;100.00;100626.75;5036142;28;20061;-73
2023/12/27 02:23:51;;;;;;;20.55;10.02;;;;;;;9.50;100.00;100619.00;5010906;28;20069;-73
2023/12/27 02:26:17;;;;;;;16.58;9.20;;;;;;;9.51;100.00;100612.34;5019153;28;20109;-73
2023/12/27 02:28:42;;;;;;;22.80;9.75;;;;;;;9.51;100.00;100615.09;5036644;28;20029;-73
2023/12/27 02:31:08;;;;;;;20.13;10.27;;;;;;;9.54;100.00;100609.00;5037060;28;20697;-73
2023/12/27 02:33:33;;;;;;;18.67;9.55;;;;;;;9.55;100.00;100605.09;5001915;28;20079;-73
2023/12/27 02:35:58;;;;;;;21.70;9.98;;;;;;;9.54;100.00;100586.81;5036569;28;20036;-73
2023/12/27 02:38:24;;;;;;;18.35;9.98;;;;;;;9.56;100.00;100586.53;5035332;28;20030;-73
2023/12/27 02:40:50;;;;;;;18.92;10.60;;;;;;;9.56;100.00;100579.03;5018917;28;20029;-73
2023/12/27 02:43:15;;;;;;;21.60;10.88;;;;;;;9.54;100.00;100572.13;5026567;28;20394;-73
2023/12/27 02:45:40;;;;;;;18.65;10.40;;;;;;;9.54;100.00;100580.44;5036520;28;20083;-73
2023/12/27 02:48:06;;;;;;;20.58;10.10;;;;;;;9.55;100.00;100582.91;5035155;28;20025;-73
2023/12/27 02:50:32;;;;;;;21.20;10.55;;;;;;;9.56;100.00;100569.91;5036341;28;20034;-73
2023/12/27 02:52:57;;;;;;;18.52;10.68;;;;;;;9.57;100.00;100568.78;5036018;28;20036;-73
2023/12/27 02:55:23;;;;;;;18.67;11.02;;;;;;;9.57;100.00;100561.28;5016485;28;20037;-73
2023/12/27 02:57:48;;;;;;;20.55;10.75;;;;;;;9.58;100.00;100559.31;5032070;28;20454;-73
2023/12/27 03:00:14;;;;;;;21.27;10.93;;;;;;;9.58;100.00;100554.63;5034849;28;20088;-73
2023/12/27 03:02:39;;;;;;;18.48;11.32;;;;;;;9.59;100.00;100547.97;5014022;28;20393;-73
2023/12/27 03:05:05;;;;;;;21.52;12.00;;;;;;;9.58;100.00;100542.69;5009962;28;20563;-73
2023/12/27 03:07:30;;;;;;;20.98;11.32;;;;;;;9.60;100.00;100540.47;5014931;28;20083;-73
2023/12/27 03:09:56;;;;;;;19.27;10.90;;;;;;;9.60;100.00;100546.84;5024392;28;20029;-73
2023/12/27 03:12:21;;;;;;;21.25;12.38;;;;;;;9.61;100.00;100551.28;5029932;28;20033;-73
2023/12/27 03:14:47;;;;;;;24.92;11.98;;;;;;;9.60;100.00;100535.75;5029017;28;20037;-73
2023/12/27 03:17:12;;;;;;;19.27;11.35;;;;;;;9.61;100.00;100533.81;5023487;28;20394;-72
2023/12/27 03:19:38;;;;;;;18.80;11.70;;;;;;;9.60;100.00;100530.19;5024593;28;20049;-73
2023/12/27 03:22:03;;;;;;;24.25;12.65;;;;;;;9.61;100.00;100520.78;5027937;28;20033;-73
2023/12/27 03:24:29;;;;;;;22.92;12.20;;;;;;;9.63;100.00;100523.25;5029529;28;20030;-73
2023/12/27 03:26:54;;;;;;;22.98;11.85;;;;;;;9.61;100.00;100515.25;5023144;28;20034;-73
2023/12/27 03:29:21;;;;;;;23.13;11.07;;;;;;;9.63;100.00;100509.41;5026582;28;20064;-73
2023/12/27 03:31:46;;;;;;;16.85;10.88;;;;;;;9.61;100.00;100514.38;5029714;28;20109;-73
2023/12/27 03:34:11;;;;;;;22.45;12.23;;;;;;;9.62;100.00;100516.88;5032565;28;20034;-73
2023/12/27 03:36:37;;;;;;;23.70;12.32;;;;;;;9.61;100.00;100504.16;5027938;28;20029;-73
2023/12/27 03:39:02;;;;;;;21.40;11.65;;;;;;;9.62;100.00;100503.03;5028232;28;20041;-73
2023/12/27 03:41:28;;;;;;;22.17;11.45;;;;;;;9.58;100.00;100487.25;5030198;28;20033;-73
2023/12/27 03:43:58;;;;;;;23.95;12.45;;;;;;;9.62;100.00;100491.94;5035452;28;20031;-73
2023/12/27 03:46:24;;;;;;;26.25;12.90;;;;;;;9.60;100.00;100480.28;5034111;28;20029;-73
2023/12/27 03:48:49;;;;;;;26.48;13.25;;;;;;;9.62;100.00;100480.03;5017771;28;20553;-73
2023/12/27 03:51:15;;;;;;;20.10;11.93;;;;;;;9.61;100.00;100487.50;5032787;28;20044;-73
2023/12/27 03:53:40;;;;;;;23.27;12.20;;;;;;;9.61;100.00;100487.50;5025729;28;20346;-73
2023/12/27 03:56:10;;;;;;;22.08;12.50;;;;;;;9.63;100.00;100473.34;5017766;28;20029;-73
2023/12/27 03:58:36;;;;;;;23.13;13.68;;;;;;;9.61;100.00;100476.41;5035238;28;20087;-73
2023/12/27 04:01:01;;;;;;;30.05;14.93;;;;;;;9.60;100.00;100469.19;5035062;28;20033;-73
2023/12/27 04:03:27;;;;;;;28.50;13.88;;;;;;;9.62;100.00;100468.94;5035203;28;20041;-73
2023/12/27 04:05:52;;;;;;;26.30;14.90;;;;;;;9.59;100.00;100462.00;5038409;28;20104;-73
2023/12/27 04:08:18;;;;;;;29.63;15.13;;;;;;;9.58;100.00;100465.91;5036542;28;20041;-73
2023/12/27 04:10:43;;;;;;;28.70;14.85;;;;;;;9.59;100.00;100464.78;5034094;28;20029;-73
2023/12/27 04:13:09;;;;;;;29.35;14.27;;;;;;;9.58;100.00;100465.06;5035315;28;20086;-73
2023/12/27 04:15:34;;;;;;;32.42;16.45;;;;;;;9.59;100.00;100467.56;5034391;28;20117;-73
2023/12/27 04:17:59;;;;;;;29.13;14.82;;;;;;;9.57;100.00;100467.00;5035007;28;20033;-73
2023/12/27 04:20:25;;;;;;;25.30;15.00;;;;;;;9.55;100.00;100466.47;5034838;28;20045;-72
2023/12/27 04:22:50;;;;;;;28.63;15.43;;;;;;;9.56;100.00;100468.13;5036298;28;20436;-73
2023/12/27 04:25:16;;;;;;;30.45;14.77;;;;;;;9.56;100.00;100456.22;5039420;28;20040;-73
2023/12/27 04:27:41;;;;;;;25.48;15.38;;;;;;;9.58;100.00;100460.38;5035081;28;20152;-73
2023/12/27 04:30:07;;;;;;;31.58;16.58;;;;;;;9.56;100.00;100459.00;5033780;28;20026;-73
2023/12/27 04:32:33;;;;;;;28.30;14.98;;;;;;;9.55;100.00;100460.09;5067032;28;20025;-73
2023/12/27 04:34:59;;;;;;;29.20;16.17;;;;;;;9.54;100.00;100455.69;5034923;28;20028;-73
2023/12/27 04:37:25;;;;;;;24.40;15.55;;;;;;;9.54;100.00;100450.97;5033408;28;20029;-73
2023/12/27 04:39:50;;;;;;;30.38;15.75;;;;;;;9.54;100.00;100447.34;5033671;28;20037;-73
2023/12/27 04:42:15;;;;;;;32.92;16.60;;;;;;;9.53;100.00;100443.75;5034637;28;20026;-73
2023/12/27 04:44:41;;;;;;;29.40;16.73;;;;;;;9.52;100.00;100433.78;5017118;28;20040;-73
2023/12/27 04:47:07;;;;;;;31.55;17.10;;;;;;;9.52;100.00;100442.09;5033614;28;20120;-73
2023/12/27 04:49:33;;;;;;;35.67;17.70;;;;;;;9.53;100.00;100438.22;5034859;28;20038;-73
2023/12/27 04:51:58;;;;;;;27.73;17.25;;;;;;;9.50;100.00;100441.56;5017137;28;20030;-73
2023/12/27 04:54:23;;;;;;;29.90;16.83;;;;;;;9.48;100.00;100432.72;5033410;28;20034;-73
2023/12/27 04:56:54;;;;;;;29.65;17.50;;;;;;;9.49;100.00;100428.81;5035043;28;20474;-73
2023/12/27 04:59:20;;;;;;;30.70;17.00;;;;;;;9.48;100.00;100421.63;5020823;28;20032;-73
2023/12/27 05:01:45;;;;;;;34.92;17.85;;;;;;;9.47;100.00;100431.06;5037107;28;20026;-73
2023/12/27 05:04:11;;;;;;;31.55;17.55;;;;;;;9.49;100.00;100422.44;5037270;28;20030;-73
2023/12/27 05:06:36;;;;;;;31.42;17.92;;;;;;;9.46;100.00;100423.84;5042255;28;20100;-73
2023/12/27 05:09:04;;;;;;;32.58;18.33;;;;;;;9.47;100.00;100422.75;5038812;28;20410;-73
2023/12/27 05:11:29;;;;;;;36.38;18.63;;;;;;;9.48;100.00;100427.16;5037043;28;20116;-73
2023/12/27 05:13:55;;;;;;;30.83;17.35;;;;;;;9.45;100.00;100426.94;5037189;28;20021;-73
2023/12/27 05:16:20;;;;;;;34.08;17.15;;;;;;;9.45;100.00;100426.94;5035480;28;20025;-73
2023/12/27 05:18:46;;;;;;;31.80;18.13;;;;;;;9.43;100.00;100424.44;5036946;28;20033;-73
2023/12/27 05:21:12;;;;;;;32.42;18.20;;;;;;;9.43;100.00;100429.97;5020627;28;20359;-73
2023/12/27 05:23:38;;;;;;;30.02;17.85;;;;;;;9.41;100.00;100421.09;5012360;28;20040;-73
2023/12/27 05:26:04;;;;;;;28.77;16.88;;;;;;;9.42;100.00;100417.25;5036694;28;20040;-73
2023/12/27 05:28:30;;;;;;;32.88;17.45;;;;;;;9.42;100.00;100414.47;5037960;28;20037;-73
2023/12/27 05:30:55;;;;;;;31.73;17.30;;;;;;;9.42;100.00;100411.69;5037896;28;20036;-73
2023/12/27 05:33:21;;;;;;;32.35;17.98;;;;;;;9.40;100.00;100409.19;5036720;28;20036;-73
2023/12/27 05:35:46;;;;;;;31.95;17.90;;;;;;;9.42;100.00;100417.25;5037873;28;20058;-73
2023/12/27 05:38:12;;;;;;;31.92;18.45;;;;;;;9.42;100.00;100414.47;5037338;28;20152;-73
2023/12/27 05:40:37;;;;;;;25.40;17.05;;;;;;;9.40;100.00;100413.91;5037817;28;20033;-73
2023/12/27 05:43:03;;;;;;;28.85;17.73;;;;;;;9.41;100.00;100407.25;5019721;28;20033;-73
2023/12/27 05:45:29;;;;;;;29.05;17.05;;;;;;;9.39;100.00;100413.09;5053114;28;20056;-73
2023/12/27 05:47:54;;;;;;;30.88;17.45;;;;;;;9.39;100.00;100406.72;5037546;28;20033;-73
2023/12/27 05:50:20;;;;;;;29.95;17.50;;;;;;;9.36;100.00;100410.06;5037524;28;20394;-73
2023/12/27 05:52:45;;;;;;;30.25;17.15;;;;;;;9.36;100.00;100407.28;5033900;28;20079;-73
2023/12/27 05:55:10;;;;;;;30.20;17.80;;;;;;;9.36;100.00;100413.69;5037567;28;20029;-73
2023/12/27 05:57:36;;;;;;;30.65;17.65;;;;;;;9.38;100.00;100405.88;5037433;28;20060;-73
2023/12/27 06:00:02;;;;;;;28.88;16.88;;;;;;;9.36;100.00;100410.06;5037387;28;20029;-73
2023/12/27 06:02:27;;;;;;;32.75;18.02;;;;;;;9.36;100.00;100401.72;5036035;28;20684;-73
2023/12/27 06:04:55;;;;;;;31.42;16.88;;;;;;;9.34;100.00;100402.03;5037436;28;20039;-73
2023/12/27 06:07:21;;;;;;;31.83;17.35;;;;;;;9.36;100.00;100401.72;5026760;28;20498;-73
2023/12/27 06:09:46;;;;;;;30.90;17.48;;;;;;;9.34;100.00;100402.03;5034758;28;20404;-73
2023/12/27 06:12:12;;;;;;;30.92;17.30;;;;;;;9.34;100.00;100398.44;5037245;28;20025;-73
2023/12/27 06:14:38;;;;;;;32.67;16.58;;;;;;;9.35;100.00;100403.69;5039863;28;20524;-73
2023/12/27 06:17:04;;;;;;;30.02;17.00;;;;;;;9.34;100.00;100395.69;5033209;28;20507;-73
2023/12/27 06:19:29;;;;;;;32.08;17.90;;;;;;;9.34;100.00;100390.13;5036938;28;20057;-72
2023/12/27 06:21:55;;;;;;;35.92;16.95;;;;;;;9.34;100.00;100396.50;5033030;28;20661;-73
2023/12/27 06:24:20;;;;;;;30.27;17.40;;;;;;;9.34;100.00;100390.13;5011046;28;20029;-72
2023/12/27 06:26:46;;;;;;;29.77;17.08;;;;;;;9.34;100.00;100387.38;5019189;28;20034;-73
2023/12/27 06:29:11;;;;;;;30.17;16.98;;;;;;;9.33;100.00;100378.22;5035567;28;20055;-73
2023/12/27 06:31:37;;;;;;;29.95;16.58;;;;;;;9.36;100.00;100376.78;5019591;28;20481;-73
2023/12/27 06:34:02;;;;;;;29.52;17.08;;;;;;;9.33;100.00;100380.16;5036903;28;20044;-73
2023/12/27 06:36:28;;;;;;;28.05;15.95;;;;;;;9.34;100.00;100373.50;5018882;28;20022;-72
2023/12/27 06:38:53;;;;;;;35.60;17.30;;;;;;;9.34;100.00;100373.50;5036418;28;20045;-73
2023/12/27 06:41:19;;;;;;;30.05;16.67;;;;;;;9.33;100.00;100374.59;5029540;28;20029;-73
2023/12/27 06:43:44;;;;;;;31.52;16.00;;;;;;;9.32;100.00;100361.88;5030059;28;20042;-73
2023/12/27 06:46:10;;;;;;;31.08;17.35;;;;;;;9.33;100.00;100357.97;5025573;28;20129;-73
2023/12/27 06:48:35;;;;;;;28.83;16.00;;;;;;;9.32;100.00;100354.38;5031163;28;20030;-73
2023/12/27 06:51:03;;;;;;;34.42;17.63;;;;;;;9.32;100.00;100356.31;5029828;28;20030;-73
2023/12/27 06:53:29;;;;;;;31.70;17.20;;;;;;;9.28;100.00;100355.25;5054612;28;20021;-73
2023/12/27 06:55:55;;;;;;;29.50;16.20;;;;;;;9.29;100.00;100345.81;5021884;28;20037;-73
2023/12/27 06:58:21;;;;;;;33.63;18.33;;;;;;;9.28;100.00;100324.78;5027403;28;20036;-73
2023/12/27 07:00:46;;;;;;;31.13;16.83;;;;;;;9.26;100.00;100335.31;5026383;28;20057;-73
2023/12/27 07:03:12;;;;;;;29.83;17.15;;;;;;;9.26;100.00;100347.22;5022249;28;20042;-73
2023/12/27 07:05:38;;;;;;;33.05;16.95;;;;;;;9.27;100.00;100335.00;5031300;28;20096;-73
2023/12/27 07:08:04;;;;;;;33.28;17.65;;;;;;;9.25;100.00;100333.66;5025342;28;20029;-73
2023/12/27 07:10:29;;;;;;;31.20;17.45;;;;;;;9.26;100.00;100340.88;5014196;28;20041;-73
2023/12/27 07:12:55;;;;;;;35.25;17.27;;;;;;;9.26;100.00;100343.63;5024411;28;20026;-73
2023/12/27 07:15:20;;;;;;;31.88;16.75;;;;;;;9.26;100.00;100336.16;5029810;28;20037;-73
2023/12/27 07:17:46;;;;;;;30.25;16.55;;;;;;;9.24;100.00;100329.22;5030333;28;20487;-73
2023/12/27 07:20:12;;;;;;;30.63;16.38;;;;;;;9.26;100.00;100332.56;5009709;28;20045;-73
2023/12/27 07:22:37;;;;;;;33.33;17.20;;;;;;;9.23;100.00;100322.88;5041291;28;20038;-73
2023/12/27 07:25:03;;;;;;;33.08;17.42;;;;;;;9.22;100.00;100339.78;5030119;28;20033;-73
2023/12/27 07:27:29;;;;;;;29.25;16.73;;;;;;;9.21;100.00;100347.25;5012747;28;20062;-73
2023/12/27 07:29:54;;;;;;;36.88;18.63;;;;;;;9.18;100.00;100348.66;5024886;28;20029;-73
2023/12/27 07:32:20;;;;;;;30.90;17.45;;;;;;;9.20;100.00;100344.81;5027549;28;20036;-73
2023/12/27 07:34:45;;;;;;;27.70;16.08;;;;;;;9.23;100.00;100349.75;5025363;28;20029;-73
2023/12/27 07:37:11;;;;;;;31.92;17.23;;;;;;;9.21;100.00;100335.34;5029380;28;20033;-73
2023/12/27 07:39:37;;;;;;;29.58;16.80;;;;;;;9.21;100.00;100338.13;5028217;28;20080;-73
2023/12/27 07:42:03;;;;;;;31.45;16.90;;;;;;;9.23;100.00;100333.13;5035201;28;20045;-73
2023/12/27 07:44:29;;;;;;;31.60;16.77;;;;;;;9.19;100.00;100338.41;5017742;28;20088;-73
2023/12/27 07:46:55;;;;;;;35.83;17.85;;;;;;;9.17;100.00;100324.84;5035328;28;20026;-73
2023/12/27 07:49:20;;;;;;;27.77;16.20;;;;;;;9.18;100.00;100334.81;5035317;28;20037;-73
2023/12/27 07:51:46;;;;;;;31.10;16.45;;;;;;;9.20;100.00;100330.94;5035198;28;20033;-73
2023/12/27 07:54:11;;;;;;;30.90;17.17;;;;;;;9.18;100.00;100331.22;5034386;28;20034;-73
2023/12/27 07:56:37;;;;;;;28.25;16.42;;;;;;;9.17;100.00;100327.63;5035404;28;20032;-73
2023/12/27 07:59:03;;;;;;;32.05;16.52;;;;;;;9.17;100.00;100322.09;5033994;28;20029;-73
2023/12/27 08:01:31;;;;;;;28.83;15.95;;;;;;;9.16;100.00;100330.69;5067053;28;20795;-73
2023/12/27 08:03:57;;;;;;;26.58;15.32;;;;;;;9.16;100.00;100320.44;5035160;28;20056;-73
2023/12/27 08:06:22;;;;;;;25.10;14.73;;;;;;;9.14;100.00;100316.31;5037292;28;20060;-73
2023/12/27 08:08:48;;;;;;;24.33;15.00;;;;;;;9.16;100.00;100303.81;5034678;28;20394;-73
2023/12/27 08:11:13;;;;;;;29.65;16.33;;;;;;;9.14;100.00;100311.59;5033824;28;20025;-73
2023/12/27 08:13:39;;;;;;;29.75;15.27;;;;;;;9.12;100.00;100297.19;5035218;28;20022;-72
2023/12/27 08:16:05;;;;;;;28.05;16.15;;;;;;;9.12;100.00;100299.97;5034005;28;20561;-73
2023/12/27 08:18:31;;;;;;;26.25;15.48;;;;;;;9.13;100.00;100315.44;5035472;28;20091;-73
2023/12/27 08:20:57;;;;;;;30.83;16.40;;;;;;;9.09;100.00;100306.09;5033920;28;20053;-73
2023/12/27 08:23:23;;;;;;;26.60;15.43;;;;;;;9.09;100.00;100302.50;5030849;28;20362;-73
2023/12/27 08:25:48;;;;;;;29.30;16.90;;;;;;;9.09;100.00;100308.84;5032759;28;20034;-73
2023/12/27 08:28:14;;;;;;;27.90;15.38;;;;;;;9.08;100.00;100298.91;5017039;28;20037;-73
2023/12/27 08:30:40;;;;;;;30.50;15.38;;;;;;;9.09;100.00;100314.38;5035044;28;20112;-73
2023/12/27 08:33:06;;;;;;;28.08;15.75;;;;;;;9.09;100.00;100310.81;5036396;28;20048;-73
2023/12/27 08:35:35;;;;;;;31.88;15.70;;;;;;;9.08;100.00;100323.81;5039174;28;20030;-73
2023/12/27 08:38:01;;;;;;;29.80;16.60;;;;;;;9.03;100.00;100320.28;5021205;28;20033;-72
2023/12/27 08:40:26;;;;;;;29.63;15.90;;;;;;;9.07;100.00;100308.31;5034497;28;20406;-73
2023/12/27 08:42:53;;;;;;;32.03;15.88;;;;;;;9.01;100.00;100301.16;5038637;28;20026;-73
2023/12/27 08:45:18;;;;;;;28.05;16.50;;;;;;;9.05;100.00;100306.94;5038707;28;20063;-73
2023/12/27 08:47:45;;;;;;;32.00;16.30;;;;;;;9.04;100.00;100308.88;5037769;28;20045;-73
2023/12/27 08:50:10;;;;;;;28.55;15.50;;;;;;;9.05;100.00;100307.75;5038630;28;20034;-73
2023/12/27 08:52:36;;;;;;;32.30;15.55;;;;;;;9.05;100.00;100296.69;5037522;28;20028;-73
2023/12/27 08:55:03;;;;;;;31.85;16.83;;;;;;;9.05;100.00;100306.94;5037340;28;20083;-73
2023/12/27 08:57:28;;;;;;;27.00;15.82;;;;;;;9.03;100.00;100311.97;5037373;28;20107;-73
2023/12/27 08:59:54;;;;;;;26.10;16.02;;;;;;;9.05;100.00;100307.75;5037032;28;20065;-73
2023/12/27 09:02:19;;;;;;;31.77;17.27;;;;;;;9.03;100.00;100298.94;5020703;28;20037;-73
2023/12/27 09:04:45;;;;;;;28.38;16.80;;;;;;;9.04;100.00;100288.69;5037009;28;20033;-73
2023/12/27 09:07:10;;;;;;;27.52;15.55;;;;;;;9.03;100.00;100287.84;5044943;28;20436;-73
2023/12/27 09:09:36;;;;;;;31.00;16.45;;;;;;;9.04;100.00;100289.50;5035490;28;20028;-73
2023/12/27 09:12:04;;;;;;;27.42;14.40;;;;;;;9.06;100.00;100292.81;5037080;28;20091;-73
2023/12/27 09:14:29;;;;;;;31.17;15.75;;;;;;;9.02;100.00;100275.09;5040723;28;20105;-73
2023/12/27 09:16:55;;;;;;;29.27;15.45;;;;;;;9.03;100.00;100273.19;5016683;28;20029;-73
2023/12/27 09:19:20;;;;;;;27.92;16.25;;;;;;;9.04;100.00;100278.41;5037924;28;20056;-73
2023/12/27 09:21:46;;;;;;;30.42;16.00;;;;;;;9.04;100.00;100277.59;5031186;28;20025;-73
2023/12/27 09:24:11;;;;;;;32.70;16.92;;;;;;;9.04;100.00;100277.59;5027525;28;20026;-73
2023/12/27 09:26:37;;;;;;;29.25;15.75;;;;;;;9.04;100.00;100278.41;5004297;28;20097;-73
2023/12/27 09:29:03;;;;;;;28.92;16.27;;;;;;;9.03;100.00;100276.78;5037891;28;20036;-73
2023/12/27 09:31:30;;;;;;;30.60;16.60;;;;;;;9.00;100.00;100282.91;5004546;28;20025;-73
2023/12/27 09:34:02;;;;;;;30.35;16.27;;;;;;;9.04;100.00;100286.72;5019572;28;20060;-72
2023/12/27 09:36:27;;;;;;;28.87;16.67;;;;;;;9.03;100.00;100287.84;5019969;28;20390;-73
2023/12/27 09:38:53;;;;;;;27.83;15.90;;;;;;;9.02;100.00;100290.91;5037613;28;20120;-74
2023/12/27 09:41:19;;;;;;;29.25;15.88;;;;;;;8.99;100.00;100297.84;5020050;28;20382;-73
2023/12/27 09:43:45;;;;;;;25.88;15.07;;;;;;;8.99;100.00;100297.00;5019555;28;20021;-73
2023/12/27 09:46:11;;;;;;;29.15;16.00;;;;;;;8.98;100.00;100287.88;5036345;28;20390;-73
2023/12/27 09:48:40;;;;;;;28.35;15.73;;;;;;;8.95;100.00;100292.06;5036349;28;20030;-73
2023/12/27 09:51:06;;;;;;;27.08;15.43;;;;;;;8.94;100.00;100295.97;5017799;28;20083;-73
2023/12/27 09:53:32;;;;;;;28.02;15.30;;;;;;;8.97;100.00;100299.25;5031354;28;20466;-73
2023/12/27 09:55:59;;;;;;;29.60;15.20;;;;;;;8.95;100.00;100285.69;5018574;28;20059;-73
2023/12/27 09:58:27;;;;;;;28.55;15.85;;;;;;;8.99;100.00;100280.41;5040092;28;20670;-73
2023/12/27 10:00:54;;;;;;;25.73;14.73;;;;;;;8.95;100.00;100274.63;5014137;28;20040;-73
2023/12/27 10:03:35;;;;;;;24.85;15.30;;;;;;;8.94;100.00;100279.34;5009867;28;20049;-73
2023/12/27 10:06:27;;;;;;;28.27;15.85;;;;;;;8.96;100.00;100276.25;5027471;28;20037;-73
2023/12/27 10:08:52;;;;;;;27.75;16.23;;;;;;;8.90;100.00;100266.34;5027556;28;20092;-73
2023/12/27 10:11:18;;;;;;;25.95;15.13;;;;;;;8.91;100.00;100248.59;5027473;28;20037;-73
2023/12/27 10:13:43;;;;;;;24.15;14.38;;;;;;;8.93;100.00;100235.28;5010071;28;20040;-73
2023/12/27 10:16:09;;;;;;;25.80;15.32;;;;;;;8.89;100.00;100239.78;5024747;28;20623;-73
2023/12/27 10:18:34;;;;;;;27.75;16.17;;;;;;;8.87;100.00;100231.75;5032908;28;20072;-72
2023/12/27 10:21:00;;;;;;;25.23;14.70;;;;;;;8.85;100.00;100235.91;5036758;28;20057;-73
2023/12/27 10:23:26;;;;;;;25.95;14.75;;;;;;;8.85;100.00;100241.44;5043370;28;20030;-73
2023/12/27 10:25:52;;;;;;;27.08;15.82;;;;;;;8.82;100.00;100237.31;5029673;28;20036;-72
2023/12/27 10:28:23;;;;;;;27.40;15.75;;;;;;;8.83;100.00;100251.97;5026044;28;20056;-73
2023/12/27 10:30:50;;;;;;;25.33;15.05;;;;;;;8.83;100.00;100243.69;5028358;28;20037;-73
2023/12/27 10:33:17;;;;;;;24.15;14.20;;;;;;;8.81;100.00;100238.44;5027873;28;20025;-73
2023/12/27 10:35:42;;;;;;;23.75;14.52;;;;;;;8.81;100.00;100241.22;5024192;28;20040;-73
2023/12/27 10:38:08;;;;;;;23.70;14.00;;;;;;;8.78;100.00;100246.50;4994120;28;20030;-73
2023/12/27 10:40:33;;;;;;;24.73;14.93;;;;;;;8.79;100.00;100245.38;5036510;28;20029;-73
2023/12/27 10:42:59;;;;;;;27.60;15.57;;;;;;;8.80;100.00;100233.19;5018789;28;20045;-73
2023/12/27 10:45:25;;;;;;;22.15;14.10;;;;;;;8.79;100.00;100237.06;5036680;28;20030;-73
2023/12/27 10:48:01;;;;;;;23.50;15.25;;;;;;;8.79;100.00;100250.91;5036318;28;20038;-73
2023/12/27 10:50:27;;;;;;;25.13;15.25;;;;;;;8.76;100.00;100241.25;5035140;28;20025;-73
2023/12/27 10:53:19;;;;;;;23.67;14.90;;;;;;;8.75;100.00;100242.38;5018325;28;20022;-73
2023/12/27 10:55:45;;;;;;;20.17;13.30;;;;;;;8.80;100.00;100235.94;5034040;28;20040;-73
2023/12/27 10:58:27;;;;;;;22.65;14.02;;;;;;;8.81;100.00;100235.69;5019609;28;20033;-73
2023/12/27 11:00:53;;;;;;;20.92;13.77;;;;;;;8.80;100.00;100222.94;5034879;28;20030;-73
2023/12/27 11:03:18;;;;;;;22.13;14.40;;;;;;;8.81;100.00;100215.47;5070651;28;20044;-73
2023/12/27 11:05:44;;;;;;;20.95;13.23;;;;;;;8.80;100.00;100216.56;5038577;28;20068;-73